createdAt,value
2022-11-28T00:01:37.583Z,3.50
2022-11-28T00:04:04.650Z,3.50
2022-11-28T00:06:31.651Z,3.50
2022-11-28T00:08:58.837Z,3.50
2022-11-28T00:11:25.739Z,3.50
2022-11-28T00:13:52.659Z,3.70
2022-11-28T00:16:23.131Z,3.60
2022-11-28T00:18:53.615Z,3.50
2022-11-28T00:21:20.665Z,3.50
2022-11-28T00:23:47.595Z,2.70
2022-11-28T00:26:14.729Z,3.50
2022-11-28T00:28:41.458Z,3.50
2022-11-28T00:31:12.245Z,5.20
2022-11-28T00:33:39.291Z,4.10
2022-11-28T00:36:06.738Z,3.90
2022-11-28T00:38:33.376Z,3.00
2022-11-28T00:41:07.323Z,3.50
2022-11-28T00:43:34.123Z,3.40
2022-11-28T00:46:01.028Z,3.40
2022-11-28T00:48:27.822Z,3.40
2022-11-28T00:50:54.589Z,3.50
2022-11-28T00:53:21.228Z,3.40
2022-11-28T00:55:47.862Z,3.90
2022-11-28T00:58:14.474Z,3.30
2022-11-28T01:00:41.172Z,3.50
2022-11-28T01:03:07.833Z,3.50
2022-11-28T01:05:39.362Z,3.40
2022-11-28T01:08:06.009Z,3.20
2022-11-28T01:10:32.626Z,3.20
2022-11-28T01:12:59.340Z,3.20
2022-11-28T01:15:26.173Z,3.40
2022-11-28T01:17:53.043Z,3.10
2022-11-28T01:20:19.727Z,3.10
2022-11-28T01:22:47.796Z,3.00
2022-11-28T01:25:14.650Z,3.10
2022-11-28T01:27:41.346Z,3.10
2022-11-28T01:30:08.506Z,3.10
2022-11-28T01:32:35.319Z,3.30
2022-11-28T01:35:02.020Z,4.50
2022-11-28T01:37:29.173Z,3.10
2022-11-28T01:39:56.003Z,4.10
2022-11-28T01:42:22.684Z,3.00
2022-11-28T01:44:49.338Z,3.00
2022-11-28T01:47:17.505Z,2.90
2022-11-28T01:49:44.135Z,2.90
2022-11-28T01:52:15.249Z,4.30
2022-11-28T01:54:42.430Z,2.90
2022-11-28T01:57:09.822Z,3.30
2022-11-28T01:59:37.890Z,2.80
2022-11-28T02:02:05.324Z,2.90
2022-11-28T02:04:32.013Z,2.90
2022-11-28T02:06:58.618Z,2.80
2022-11-28T02:09:25.220Z,2.80
2022-11-28T02:12:10.852Z,3.70
2022-11-28T02:14:43.706Z,2.80
2022-11-28T02:17:22.951Z,2.80
2022-11-28T02:19:49.708Z,2.80
2022-11-28T02:22:17.987Z,2.80
2022-11-28T02:24:50.738Z,3.50
2022-11-28T02:27:23.596Z,2.80
2022-11-28T02:29:53.560Z,2.90
2022-11-28T02:32:23.223Z,2.90
2022-11-28T02:34:50.243Z,2.90
2022-11-28T02:37:31.808Z,3.40
2022-11-28T02:39:58.618Z,3.00
2022-11-28T02:42:28.732Z,3.00
2022-11-28T02:44:56.766Z,3.00
2022-11-28T02:47:24.541Z,3.00
2022-11-28T02:49:57.315Z,3.10
2022-11-28T02:52:33.479Z,3.10
2022-11-28T02:55:00.394Z,3.10
2022-11-28T02:57:37.419Z,3.10
2022-11-28T03:00:22.126Z,3.10
2022-11-28T03:02:49.721Z,3.20
2022-11-28T03:05:19.504Z,3.20
2022-11-28T03:07:46.703Z,3.20
2022-11-28T03:10:13.646Z,3.20
2022-11-28T03:12:40.449Z,3.20
2022-11-28T03:15:07.700Z,3.80
2022-11-28T03:17:38.722Z,3.20
2022-11-28T03:20:08.596Z,3.20
2022-11-28T03:22:50.719Z,3.20
2022-11-28T03:25:26.223Z,3.20
2022-11-28T03:28:02.425Z,3.30
2022-11-28T03:30:47.991Z,3.20
2022-11-28T03:33:14.939Z,3.20
2022-11-28T03:35:43.619Z,3.20
2022-11-28T03:38:13.475Z,3.20
2022-11-28T03:40:42.584Z,3.20
2022-11-28T03:43:10.246Z,3.20
2022-11-28T03:45:38.902Z,3.20
2022-11-28T03:48:07.241Z,3.20
2022-11-28T03:50:35.026Z,3.20
2022-11-28T03:53:05.963Z,3.20
2022-11-28T03:55:38.741Z,3.20
2022-11-28T03:58:07.561Z,3.30
2022-11-28T04:00:35.744Z,3.30
2022-11-28T04:03:02.685Z,3.30
2022-11-28T04:05:32.702Z,3.70
2022-11-28T04:08:07.363Z,3.30
2022-11-28T04:10:34.060Z,3.40
2022-11-28T04:13:20.079Z,3.40
2022-11-28T04:15:56.885Z,3.40
2022-11-28T04:18:26.605Z,3.40
2022-11-28T04:21:16.605Z,3.40
2022-11-28T04:23:43.863Z,3.40
2022-11-28T04:26:14.589Z,3.80
2022-11-28T04:28:41.334Z,3.40
2022-11-28T04:31:08.076Z,3.40
2022-11-28T04:33:36.202Z,3.40
2022-11-28T04:36:03.105Z,3.50
2022-11-28T04:38:29.883Z,3.40
2022-11-28T04:41:16.930Z,3.40
2022-11-28T04:43:45.811Z,3.40
2022-11-28T04:46:17.239Z,3.50
2022-11-28T04:48:43.894Z,3.50
2022-11-28T04:51:21.388Z,3.50
2022-11-28T04:53:50.291Z,3.50
2022-11-28T04:56:19.864Z,3.50
2022-11-28T04:58:46.870Z,3.70
2022-11-28T05:01:14.686Z,4.70
2022-11-28T05:03:42.885Z,4.50
2022-11-28T05:06:09.790Z,3.50
2022-11-28T05:08:36.475Z,3.50
2022-11-28T05:11:03.251Z,4.20
2022-11-28T05:13:30.095Z,3.50
2022-11-28T05:15:59.891Z,3.50
2022-11-28T05:18:26.980Z,3.60
2022-11-28T05:20:53.734Z,3.50
2022-11-28T05:23:20.449Z,3.50
2022-11-28T05:25:47.337Z,4.20
2022-11-28T05:28:14.057Z,3.50
2022-11-28T05:30:41.244Z,5.20
2022-11-28T05:33:08.129Z,3.50
2022-11-28T05:35:35.036Z,4.40
2022-11-28T05:38:05.014Z,3.70
2022-11-28T05:40:33.798Z,3.50
2022-11-28T05:43:01.234Z,3.50
2022-11-28T05:45:31.066Z,4.70
2022-11-28T05:48:01.744Z,3.50
2022-11-28T05:50:28.719Z,4.70
2022-11-28T05:52:56.546Z,3.70
2022-11-28T05:55:23.317Z,3.60
2022-11-28T05:57:50.049Z,4.10
2022-11-28T06:00:17.189Z,2.10
2022-11-28T06:02:43.995Z,3.50
2022-11-28T06:05:40.299Z,3.50
2022-11-28T06:07:57.738Z,3.50
2022-11-28T06:10:24.637Z,3.40
2022-11-28T06:12:51.291Z,3.60
2022-11-28T06:15:17.957Z,3.50
2022-11-28T06:17:44.649Z,3.50
2022-11-28T06:20:11.443Z,4.00
2022-11-28T06:22:38.167Z,3.70
2022-11-28T06:25:04.979Z,3.60
2022-11-28T06:27:31.738Z,3.70
2022-11-28T06:29:58.404Z,4.20
2022-11-28T06:32:25.110Z,3.90
2022-11-28T06:34:51.815Z,3.70
2022-11-28T06:37:18.680Z,3.70
2022-11-28T06:39:45.470Z,3.70
2022-11-28T06:42:12.133Z,3.80
2022-11-28T06:44:38.744Z,4.00
2022-11-28T06:47:05.528Z,3.80
2022-11-28T06:49:32.256Z,3.90
2022-11-28T06:51:59.933Z,3.90
2022-11-28T06:54:26.901Z,4.00
2022-11-28T06:56:53.548Z,3.90
2022-11-28T06:59:20.155Z,4.10
2022-11-28T07:01:46.817Z,4.70
2022-11-28T07:04:13.616Z,4.60
2022-11-28T07:06:40.393Z,4.40
2022-11-28T07:09:07.080Z,4.40
2022-11-28T07:11:33.741Z,4.60
2022-11-28T07:14:01.002Z,4.80
2022-11-28T07:16:28.633Z,4.80
2022-11-28T07:18:55.489Z,6.10
2022-11-28T07:21:22.277Z,4.80
2022-11-28T07:23:48.984Z,4.80
2022-11-28T07:26:17.448Z,4.90
2022-11-28T07:28:44.254Z,5.00
2022-11-28T07:31:14.589Z,4.90
2022-11-28T07:33:41.773Z,5.00
2022-11-28T07:36:10.512Z,4.90
2022-11-28T07:38:37.175Z,4.80
2022-11-28T07:41:07.750Z,4.70
2022-11-28T07:43:34.461Z,4.60
2022-11-28T07:46:03.365Z,4.60
2022-11-28T07:48:30.034Z,4.50
2022-11-28T07:50:56.687Z,4.40
2022-11-28T07:53:23.367Z,4.40
2022-11-28T07:55:50.063Z,4.50
2022-11-28T07:58:16.717Z,5.00
2022-11-28T08:00:43.411Z,5.60
2022-11-28T08:03:10.247Z,4.50
2022-11-28T08:05:36.958Z,4.60
2022-11-28T08:08:03.772Z,4.70
2022-11-28T08:10:30.474Z,4.60
2022-11-28T08:12:57.138Z,4.70
2022-11-28T08:15:23.790Z,4.90
2022-11-28T08:17:50.526Z,4.70
2022-11-28T08:20:17.370Z,4.70
2022-11-28T08:22:44.085Z,4.80
2022-11-28T08:25:10.769Z,4.80
2022-11-28T08:27:37.585Z,5.00
2022-11-28T08:30:04.466Z,5.00
2022-11-28T08:32:31.627Z,6.20
2022-11-28T08:34:58.258Z,5.10
2022-11-28T08:37:24.936Z,5.10
2022-11-28T08:39:51.613Z,5.20
2022-11-28T08:42:18.248Z,5.20
2022-11-28T08:44:44.879Z,5.20
2022-11-28T08:47:11.582Z,5.30
2022-11-28T08:49:39.408Z,5.40
2022-11-28T08:52:06.135Z,5.60
2022-11-28T08:54:32.846Z,5.60
2022-11-28T08:57:01.329Z,5.60
2022-11-28T08:59:28.362Z,6.00
2022-11-28T09:01:55.107Z,5.90
2022-11-28T09:04:22.039Z,6.00
2022-11-28T09:06:48.865Z,6.10
2022-11-28T09:09:15.594Z,6.30
2022-11-28T09:11:42.320Z,6.30
2022-11-28T09:14:09.107Z,6.40
2022-11-28T09:16:35.864Z,6.40
2022-11-28T09:19:02.640Z,6.60
2022-11-28T09:21:29.321Z,6.70
2022-11-28T09:23:56.277Z,6.80
2022-11-28T09:26:24.230Z,6.50
2022-11-28T09:28:50.878Z,6.60
2022-11-28T09:31:17.948Z,6.40
2022-11-28T09:33:44.876Z,6.30
2022-11-28T09:36:12.382Z,6.10
2022-11-28T09:38:39.069Z,6.20
2022-11-28T09:41:27.251Z,6.10
2022-11-28T09:43:59.539Z,6.00
2022-11-28T09:46:33.693Z,6.10
2022-11-28T09:49:09.978Z,6.10
2022-11-28T09:51:53.741Z,6.20
2022-11-28T09:54:34.772Z,6.20
2022-11-28T09:57:07.307Z,6.30
2022-11-28T09:59:42.792Z,6.40
2022-11-28T10:02:18.978Z,6.60
2022-11-28T10:04:54.439Z,6.70
2022-11-28T10:07:40.249Z,6.90
2022-11-28T10:10:16.086Z,6.80
2022-11-28T10:12:57.043Z,6.80
2022-11-28T10:15:35.827Z,6.90
2022-11-28T10:18:14.157Z,6.90
2022-11-28T10:20:44.486Z,6.90
2022-11-28T10:23:22.155Z,7.00
2022-11-28T10:26:07.139Z,6.80
2022-11-28T10:28:45.251Z,6.80
2022-11-28T10:31:22.468Z,6.70
2022-11-28T10:34:00.595Z,8.30
2022-11-28T10:36:55.621Z,6.80
2022-11-28T10:39:29.247Z,6.90
2022-11-28T10:42:15.042Z,6.90
2022-11-28T10:44:51.329Z,7.10
2022-11-28T10:47:23.969Z,7.20
2022-11-28T10:50:13.759Z,7.20
2022-11-28T10:52:50.861Z,7.20
2022-11-28T10:55:35.648Z,7.20
2022-11-28T10:58:11.070Z,7.10
2022-11-28T11:00:48.008Z,7.10
2022-11-28T11:03:26.940Z,7.00
2022-11-28T11:06:05.302Z,7.10
2022-11-28T11:08:47.227Z,7.00
2022-11-28T11:11:29.165Z,7.00
2022-11-28T11:14:05.674Z,6.90
2022-11-28T11:16:48.960Z,6.90
2022-11-28T11:19:25.480Z,6.80
2022-11-28T11:21:59.109Z,6.80
2022-11-28T11:24:25.839Z,6.90
2022-11-28T11:26:52.570Z,6.90
2022-11-28T11:29:28.438Z,6.80
2022-11-28T11:31:55.100Z,6.90
2022-11-28T11:34:22.601Z,6.90
2022-11-28T11:36:49.369Z,6.80
2022-11-28T11:39:16.853Z,6.70
2022-11-28T11:41:50.520Z,6.70
2022-11-28T11:44:25.628Z,6.80
2022-11-28T11:46:52.818Z,6.70
2022-11-28T11:49:32.666Z,6.60
2022-11-28T11:52:00.369Z,6.60
2022-11-28T11:54:27.010Z,6.70
2022-11-28T11:57:05.678Z,5.90
2022-11-28T11:59:50.198Z,6.70
2022-11-28T12:02:41.127Z,6.70
2022-11-28T12:05:14.064Z,5.30
2022-11-28T12:07:53.589Z,6.50
2022-11-28T12:10:21.395Z,6.50
2022-11-28T12:12:48.028Z,6.40
2022-11-28T12:15:16.176Z,6.50
2022-11-28T12:18:01.553Z,6.40
2022-11-28T12:20:38.235Z,6.30
2022-11-28T12:23:04.893Z,6.20
2022-11-28T12:25:50.201Z,6.30
2022-11-28T12:28:16.799Z,6.10
2022-11-28T12:30:50.446Z,6.30
2022-11-28T12:33:20.261Z,6.10
2022-11-28T12:36:03.018Z,6.10
2022-11-28T12:38:45.516Z,6.10
2022-11-28T12:41:30.755Z,6.20
2022-11-28T12:44:07.823Z,6.10
2022-11-28T12:46:47.854Z,6.00
2022-11-28T12:49:18.526Z,6.00
2022-11-28T12:51:48.214Z,5.90
2022-11-28T12:54:27.908Z,6.00
2022-11-28T12:56:57.158Z,5.80
2022-11-28T12:59:32.647Z,5.80
2022-11-28T13:02:08.223Z,5.90
2022-11-28T13:04:36.346Z,5.70
2022-11-28T13:07:10.570Z,5.80
2022-11-28T13:09:37.510Z,5.70
2022-11-28T13:12:12.225Z,5.60
2022-11-28T13:14:52.742Z,5.60
2022-11-28T13:17:38.285Z,5.40
2022-11-28T13:20:23.668Z,5.40
2022-11-28T13:23:10.554Z,5.50
2022-11-28T13:25:40.291Z,5.40
2022-11-28T13:28:20.779Z,5.40
2022-11-28T13:30:51.733Z,5.30
2022-11-28T13:33:30.713Z,5.20
2022-11-28T13:35:57.937Z,5.20
2022-11-28T13:38:38.445Z,5.20
2022-11-28T13:41:35.146Z,5.20
2022-11-28T13:44:15.442Z,5.20
2022-11-28T13:46:43.347Z,5.30
2022-11-28T13:49:21.799Z,5.10
2022-11-28T13:51:48.576Z,5.10
2022-11-28T13:54:18.965Z,5.10
2022-11-28T13:56:45.864Z,5.10
2022-11-28T13:59:16.795Z,5.10
2022-11-28T14:01:44.269Z,5.00
2022-11-28T14:04:14.434Z,5.00
2022-11-28T14:06:47.421Z,5.00
2022-11-28T14:09:14.067Z,5.00
2022-11-28T14:11:49.959Z,4.90
2022-11-28T14:14:22.526Z,4.90
2022-11-28T14:16:52.090Z,4.90
2022-11-28T14:19:21.674Z,5.00
2022-11-28T14:21:51.395Z,4.80
2022-11-28T14:24:36.882Z,4.80
2022-11-28T14:27:04.024Z,4.90
2022-11-28T14:29:40.287Z,4.70
2022-11-28T14:32:29.688Z,4.80
2022-11-28T14:34:53.557Z,4.70
2022-11-28T14:37:27.093Z,4.70
2022-11-28T14:39:57.030Z,5.50
2022-11-28T14:45:32.292Z,4.60
2022-11-28T14:48:18.308Z,4.60
2022-11-28T14:50:48.826Z,4.50
2022-11-28T14:53:33.612Z,4.50
2022-11-28T14:56:15.481Z,4.40
2022-11-28T14:58:52.541Z,4.50
2022-11-28T15:01:29.941Z,4.50
2022-11-28T15:04:17.537Z,4.50
2022-11-28T15:06:44.202Z,4.30
2022-11-28T15:09:19.900Z,4.40
2022-11-28T15:12:05.490Z,4.40
2022-11-28T15:14:32.172Z,4.40
2022-11-28T15:17:03.553Z,5.10
2022-11-28T15:19:34.066Z,4.30
2022-11-28T15:22:00.889Z,4.30
2022-11-28T15:24:29.019Z,4.60
2022-11-28T15:27:15.792Z,4.30
2022-11-28T15:29:42.462Z,4.20
2022-11-28T15:32:12.198Z,4.30
2022-11-28T15:34:38.866Z,4.30
2022-11-28T15:37:06.330Z,4.60
2022-11-28T15:39:39.948Z,4.40
2022-11-28T15:42:08.091Z,4.10
2022-11-28T15:44:36.303Z,4.10
2022-11-28T15:47:03.404Z,4.20
2022-11-28T15:49:33.993Z,5.00
2022-11-28T15:52:01.514Z,5.30
2022-11-28T15:54:35.796Z,4.10
2022-11-28T15:57:02.594Z,4.10
2022-11-28T15:59:29.394Z,4.40
2022-11-28T16:01:59.513Z,4.10
2022-11-28T16:04:26.312Z,4.10
2022-11-28T16:06:53.257Z,5.30
2022-11-28T16:09:20.045Z,5.40
2022-11-28T16:11:47.125Z,4.00
2022-11-28T16:14:26.108Z,4.00
2022-11-28T16:16:52.847Z,4.00
2022-11-28T16:19:29.045Z,4.00
2022-11-28T16:21:56.949Z,3.90
2022-11-28T16:24:33.674Z,3.90
2022-11-28T16:27:25.542Z,3.80
2022-11-28T16:29:52.348Z,3.90
2022-11-28T16:32:21.753Z,3.80
2022-11-28T16:34:54.762Z,3.80
2022-11-28T16:37:23.702Z,3.90
2022-11-28T16:39:59.511Z,3.80
2022-11-28T16:42:26.176Z,3.70
2022-11-28T16:44:52.913Z,3.40
2022-11-28T16:47:24.009Z,3.80
2022-11-28T16:50:15.434Z,3.70
2022-11-28T16:52:43.713Z,3.70
2022-11-28T16:55:28.734Z,4.60
2022-11-28T16:58:07.372Z,3.60
2022-11-28T17:00:34.588Z,3.60
2022-11-28T17:03:01.237Z,3.60
2022-11-28T17:05:27.829Z,5.50
2022-11-28T17:07:54.627Z,3.60
2022-11-28T17:10:21.265Z,3.60
2022-11-28T17:12:47.956Z,3.60
2022-11-28T17:15:15.381Z,4.90
2022-11-28T17:17:42.087Z,3.70
2022-11-28T17:20:09.161Z,3.60
2022-11-28T17:22:40.931Z,3.60
2022-11-28T17:25:10.006Z,3.60
2022-11-28T17:27:36.629Z,3.60
2022-11-28T17:30:03.318Z,3.60
2022-11-28T17:32:29.934Z,3.60
2022-11-28T17:34:56.570Z,4.20
2022-11-28T17:37:23.209Z,4.30
2022-11-28T17:40:08.630Z,3.70
2022-11-28T17:42:35.482Z,2.20
2022-11-28T17:45:02.100Z,3.60
2022-11-28T17:47:28.761Z,3.80
2022-11-28T17:49:55.833Z,3.60
2022-11-28T17:52:27.793Z,4.50
2022-11-28T17:54:59.827Z,3.60
2022-11-28T17:57:28.783Z,3.60
2022-11-28T17:59:55.610Z,3.60
2022-11-28T18:02:22.315Z,4.90
2022-11-28T18:04:49.030Z,2.30
2022-11-28T18:07:23.806Z,3.70
2022-11-28T18:09:50.574Z,3.60
2022-11-28T18:12:17.219Z,3.60
2022-11-28T18:14:46.889Z,4.40
2022-11-28T18:17:20.939Z,3.60
2022-11-28T18:19:57.166Z,3.60
2022-11-28T18:22:29.198Z,3.70
2022-11-28T18:25:04.056Z,3.60
2022-11-28T18:27:39.215Z,3.70
2022-11-28T18:30:15.579Z,3.90
2022-11-28T18:32:47.611Z,3.70
2022-11-28T18:35:22.435Z,3.70
2022-11-28T18:37:54.580Z,3.70
2022-11-28T18:40:30.912Z,3.70
2022-11-28T18:43:10.761Z,4.20
2022-11-28T18:45:48.951Z,2.60
2022-11-28T18:48:24.406Z,3.60
2022-11-28T18:51:00.022Z,4.60
2022-11-28T18:53:36.756Z,3.70
2022-11-28T18:56:12.071Z,3.70
2022-11-28T18:58:42.045Z,3.70
2022-11-28T19:01:22.735Z,3.70
2022-11-28T19:04:02.848Z,3.60
2022-11-28T19:06:34.983Z,4.00
2022-11-28T19:09:05.624Z,3.60
2022-11-28T19:11:44.675Z,3.60
2022-11-28T19:14:23.255Z,3.80
2022-11-28T19:17:04.959Z,3.60
2022-11-28T19:19:40.519Z,3.60
2022-11-28T19:22:15.717Z,3.60
2022-11-28T19:24:47.615Z,3.50
2022-11-28T19:27:22.558Z,3.50
2022-11-28T19:29:51.582Z,3.50
2022-11-28T19:32:30.707Z,3.80
2022-11-28T19:35:04.787Z,3.50
2022-11-28T19:37:35.844Z,3.90
2022-11-28T19:40:19.150Z,3.50
2022-11-28T19:42:51.553Z,3.50
2022-11-28T19:45:27.547Z,4.30
2022-11-28T19:47:54.533Z,3.50
2022-11-28T19:50:26.292Z,3.70
2022-11-28T19:53:10.317Z,3.50
2022-11-28T19:55:46.075Z,4.30
2022-11-28T19:58:27.782Z,3.60
2022-11-28T20:01:11.243Z,3.40
2022-11-28T20:03:38.420Z,3.40
2022-11-28T20:06:34.524Z,3.50
2022-11-28T20:12:39.607Z,3.40
2022-11-28T20:15:18.403Z,3.40
2022-11-28T20:21:26.273Z,3.40
2022-11-28T20:24:11.621Z,3.30
2022-11-28T20:30:15.771Z,3.30
2022-11-28T20:33:05.429Z,3.30
2022-11-28T20:35:43.666Z,3.30
2022-11-28T20:38:31.378Z,3.30
2022-11-28T20:41:29.600Z,3.30
2022-11-28T20:47:14.312Z,3.40
2022-11-28T20:50:29.440Z,1.80
2022-11-28T20:53:50.379Z,3.70
2022-11-28T21:57:28.692Z,3.10
2022-11-28T22:00:02.234Z,3.30
2022-11-28T22:02:31.001Z,3.20
2022-11-28T22:04:58.972Z,3.50
2022-11-28T22:07:25.674Z,3.10
2022-11-28T22:09:52.413Z,3.20
2022-11-28T22:12:19.070Z,3.10
2022-11-28T22:14:46.135Z,3.10
2022-11-28T22:17:13.090Z,4.20
2022-11-28T22:19:39.707Z,3.40
2022-11-28T22:22:06.364Z,3.10
2022-11-28T22:24:33.001Z,4.10
2022-11-28T22:26:59.781Z,3.30
2022-11-28T22:29:26.593Z,3.50
2022-11-28T22:31:53.398Z,3.60
2022-11-28T22:34:20.232Z,3.00
2022-11-28T22:36:46.994Z,2.80
2022-11-28T22:39:13.648Z,3.00
2022-11-28T22:41:40.328Z,3.60
2022-11-28T22:44:07.039Z,3.40
2022-11-28T22:46:33.753Z,3.70
2022-11-28T22:49:00.499Z,3.50
2022-11-28T22:51:27.190Z,4.50
2022-11-28T22:53:54.439Z,4.60
2022-11-28T22:56:21.096Z,4.40
2022-11-28T22:58:47.813Z,3.10
2022-11-28T23:01:17.215Z,4.00
2022-11-28T23:03:44.030Z,2.90
2022-11-28T23:06:11.450Z,4.60
2022-11-28T23:08:38.065Z,2.90
2022-11-28T23:11:08.309Z,2.90
2022-11-28T23:13:35.200Z,4.30
2022-11-28T23:16:28.314Z,2.90
2022-11-28T23:18:55.616Z,2.90
2022-11-28T23:21:22.611Z,2.90
2022-11-28T23:23:49.420Z,2.00
2022-11-28T23:26:17.301Z,3.00
2022-11-28T23:28:43.958Z,3.60
2022-11-28T23:31:12.737Z,2.90
2022-11-28T23:33:39.548Z,2.90
2022-11-28T23:36:12.381Z,2.90
2022-11-28T23:38:39.073Z,2.80
2022-11-28T23:41:05.712Z,2.80
2022-11-28T23:43:32.544Z,2.90
2022-11-28T23:45:59.233Z,3.00
2022-11-28T23:48:25.883Z,2.80
2022-11-28T23:50:52.631Z,2.80
2022-11-28T23:53:19.273Z,3.70
2022-11-28T23:55:45.942Z,2.80
2022-11-28T23:58:13.996Z,2.90
